createdAt,value
2022-09-06T00:00:27.816Z,22.57
2022-09-06T00:02:55.276Z,20.53
2022-09-06T00:05:22.650Z,20.73
2022-09-06T00:07:49.779Z,21.47
2022-09-06T00:10:17.137Z,21.23
2022-09-06T00:12:44.310Z,20.90
2022-09-06T00:15:11.607Z,21.03
2022-09-06T00:17:38.840Z,21.40
2022-09-06T00:20:09.217Z,19.70
2022-09-06T00:22:37.560Z,20.70
2022-09-06T00:25:07.152Z,21.23
2022-09-06T00:27:35.070Z,20.57
2022-09-06T00:30:04.633Z,21.80
2022-09-06T00:32:32.500Z,20.80
2022-09-06T00:34:59.644Z,21.10
2022-09-06T00:37:26.893Z,19.23
2022-09-06T00:39:54.042Z,20.60
2022-09-06T00:42:21.346Z,20.53
2022-09-06T00:44:49.975Z,21.30
2022-09-06T00:47:17.298Z,19.90
2022-09-06T00:49:48.164Z,21.00
2022-09-06T00:52:17.364Z,21.00
2022-09-06T00:54:44.694Z,20.30
2022-09-06T00:57:13.761Z,19.00
2022-09-06T00:59:43.884Z,18.17
2022-09-06T01:02:11.509Z,20.37
2022-09-06T01:04:42.527Z,18.30
2022-09-06T01:07:54.408Z,17.23
2022-09-06T01:11:04.523Z,20.43
2022-09-06T01:13:48.710Z,17.00
2022-09-06T01:16:44.681Z,18.17
2022-09-06T01:20:13.663Z,17.47
2022-09-06T01:23:11.832Z,18.90
2022-09-06T01:26:18.913Z,19.33
2022-09-06T01:28:46.654Z,17.10
2022-09-06T01:31:33.349Z,16.60
2022-09-06T01:34:06.154Z,17.90
2022-09-06T01:37:08.565Z,16.30
2022-09-06T01:39:37.519Z,16.23
2022-09-06T01:42:13.880Z,17.93
2022-09-06T01:44:46.653Z,18.60
2022-09-06T01:47:37.281Z,17.23
2022-09-06T01:50:23.372Z,16.47
2022-09-06T01:53:49.997Z,18.23
2022-09-06T01:56:25.882Z,16.17
2022-09-06T01:59:08.583Z,17.70
2022-09-06T02:02:06.485Z,16.00
2022-09-06T02:04:47.701Z,14.23
2022-09-06T02:07:25.633Z,16.33
2022-09-06T02:10:20.461Z,16.47
2022-09-06T02:12:53.016Z,15.13
2022-09-06T02:15:35.221Z,14.70
2022-09-06T02:18:15.747Z,14.23
2022-09-06T02:20:51.435Z,15.00
2022-09-06T02:23:21.270Z,14.20
2022-09-06T02:25:55.190Z,14.13
2022-09-06T02:28:23.619Z,14.23
2022-09-06T02:30:58.364Z,15.00
2022-09-06T02:33:30.906Z,14.43
2022-09-06T02:36:08.258Z,13.83
2022-09-06T02:38:38.220Z,12.50
2022-09-06T02:41:06.867Z,13.20
2022-09-06T02:43:34.077Z,13.10
2022-09-06T02:46:01.665Z,13.97
2022-09-06T02:48:29.180Z,14.03
2022-09-06T02:50:56.264Z,13.40
2022-09-06T02:53:23.510Z,13.40
2022-09-06T02:55:50.670Z,13.47
2022-09-06T02:58:17.824Z,13.57
2022-09-06T03:00:45.213Z,13.30
2022-09-06T03:03:12.407Z,12.97
2022-09-06T03:05:39.637Z,13.07
2022-09-06T03:08:06.832Z,12.13
2022-09-06T03:10:34.006Z,12.70
2022-09-06T03:13:01.147Z,13.17
2022-09-06T03:15:28.319Z,13.30
2022-09-06T03:17:59.840Z,13.40
2022-09-06T03:20:27.121Z,12.47
2022-09-06T03:22:54.330Z,13.10
2022-09-06T03:25:21.926Z,13.43
2022-09-06T03:27:49.132Z,13.60
2022-09-06T03:30:16.433Z,12.97
2022-09-06T03:32:43.708Z,13.17
2022-09-06T03:35:11.598Z,13.40
2022-09-06T03:37:38.767Z,13.40
2022-09-06T03:40:07.067Z,13.20
2022-09-06T03:42:34.223Z,12.73
2022-09-06T03:45:01.439Z,12.40
2022-09-06T03:47:28.561Z,11.90
2022-09-06T03:49:55.738Z,13.33
2022-09-06T03:52:22.997Z,13.13
2022-09-06T03:54:50.133Z,13.10
2022-09-06T03:57:17.328Z,12.47
2022-09-06T03:59:44.434Z,11.67
2022-09-06T04:02:11.644Z,12.60
2022-09-06T04:04:38.869Z,12.63
2022-09-06T04:07:06.051Z,12.20
2022-09-06T04:09:33.276Z,12.87
2022-09-06T04:12:00.436Z,10.87
2022-09-06T04:14:27.594Z,13.10
2022-09-06T04:16:54.857Z,13.10
2022-09-06T04:19:22.293Z,11.73
2022-09-06T04:21:49.447Z,12.03
2022-09-06T04:24:16.579Z,12.17
2022-09-06T04:26:43.714Z,12.40
2022-09-06T04:29:10.797Z,12.10
2022-09-06T04:31:38.169Z,13.10
2022-09-06T04:34:05.326Z,13.10
2022-09-06T04:36:32.586Z,14.10
2022-09-06T04:38:59.699Z,13.50
2022-09-06T04:41:26.852Z,13.00
2022-09-06T04:43:53.991Z,15.27
2022-09-06T04:46:30.007Z,13.77
2022-09-06T04:48:58.060Z,13.20
2022-09-06T04:51:25.911Z,12.40
2022-09-06T04:53:53.457Z,11.00
2022-09-06T04:56:23.232Z,11.20
2022-09-06T04:58:53.785Z,11.47
2022-09-06T05:01:21.481Z,11.60
2022-09-06T05:03:49.060Z,11.77
2022-09-06T05:06:24.719Z,10.77
2022-09-06T05:08:52.523Z,12.90
2022-09-06T05:11:20.249Z,9.60
2022-09-06T05:13:47.777Z,10.43
2022-09-06T05:16:15.386Z,10.00
2022-09-06T05:18:42.623Z,9.63
2022-09-06T05:21:10.366Z,11.70
2022-09-06T05:23:37.580Z,9.93
2022-09-06T05:26:05.158Z,9.03
2022-09-06T05:28:32.374Z,10.43
2022-09-06T05:31:28.456Z,10.20
2022-09-06T05:33:56.543Z,10.13
2022-09-06T05:36:25.302Z,11.80
2022-09-06T05:38:54.437Z,10.03
2022-09-06T05:41:22.979Z,9.50
2022-09-06T05:43:50.208Z,8.80
2022-09-06T05:46:17.939Z,8.53
2022-09-06T05:48:52.086Z,8.77
2022-09-06T05:51:19.310Z,7.83
2022-09-06T05:53:46.529Z,8.87
2022-09-06T05:56:14.825Z,8.23
2022-09-06T05:58:41.987Z,8.40
2022-09-06T06:01:15.112Z,9.00
2022-09-06T06:03:43.482Z,9.40
2022-09-06T06:06:10.707Z,8.90
2022-09-06T06:08:37.888Z,8.10
2022-09-06T06:11:05.234Z,8.67
2022-09-06T06:13:39.466Z,9.47
2022-09-06T06:16:13.731Z,9.53
2022-09-06T06:18:41.429Z,8.93
2022-09-06T06:21:21.178Z,8.20
2022-09-06T06:23:53.534Z,8.97
2022-09-06T06:26:21.074Z,8.03
2022-09-06T06:28:49.050Z,8.97
2022-09-06T06:31:16.521Z,8.90
2022-09-06T06:33:44.430Z,7.00
2022-09-06T06:36:14.526Z,9.47
2022-09-06T06:38:44.942Z,8.20
2022-09-06T06:41:15.830Z,9.10
2022-09-06T06:43:43.213Z,8.40
2022-09-06T06:46:14.993Z,8.57
2022-09-06T06:48:43.790Z,8.60
2022-09-06T06:51:19.303Z,7.80
2022-09-06T06:53:47.814Z,6.83
2022-09-06T06:56:27.731Z,7.20
2022-09-06T06:58:57.761Z,7.33
2022-09-06T07:01:27.217Z,7.17
2022-09-06T07:03:54.794Z,6.10
2022-09-06T07:09:10.729Z,7.30
2022-09-06T07:11:38.394Z,6.53
2022-09-06T07:14:05.515Z,6.20
2022-09-06T07:16:32.688Z,6.00
2022-09-06T07:19:00.244Z,6.90
2022-09-06T07:21:43.430Z,6.37
2022-09-06T07:24:10.770Z,7.10
2022-09-06T07:26:39.919Z,5.93
2022-09-06T07:29:08.421Z,7.80
2022-09-06T07:34:25.862Z,6.80
2022-09-06T07:36:56.727Z,6.40
2022-09-06T07:39:24.053Z,7.07
2022-09-06T07:41:51.579Z,5.80
2022-09-06T07:44:18.774Z,6.40
2022-09-06T07:46:45.971Z,6.60
2022-09-06T07:49:13.366Z,6.43
2022-09-06T07:51:40.529Z,5.93
2022-09-06T07:54:29.410Z,8.53
2022-09-06T07:56:55.114Z,7.27
2022-09-06T07:59:22.268Z,6.40
2022-09-06T08:01:50.134Z,6.33
2022-09-06T08:04:17.310Z,6.13
2022-09-06T08:09:36.026Z,6.60
2022-09-06T08:12:07.500Z,6.53
2022-09-06T08:14:35.350Z,5.70
2022-09-06T08:17:03.861Z,5.47
2022-09-06T08:19:31.318Z,7.40
2022-09-06T08:21:58.676Z,7.17
2022-09-06T08:24:26.021Z,5.40
2022-09-06T08:26:53.283Z,6.20
2022-09-06T08:29:20.659Z,5.40
2022-09-06T08:31:48.421Z,6.10
2022-09-06T08:34:16.069Z,5.80
2022-09-06T08:36:44.255Z,5.60
2022-09-06T08:39:12.381Z,6.50
2022-09-06T08:41:56.631Z,6.67
2022-09-06T08:47:24.209Z,9.03
2022-09-06T08:49:54.831Z,5.97
2022-09-06T08:53:17.224Z,6.43
2022-09-06T08:56:38.736Z,6.53
2022-09-06T08:59:12.459Z,5.60
2022-09-06T09:02:04.114Z,5.77
2022-09-06T09:04:33.347Z,6.00
2022-09-06T09:07:31.261Z,5.07
2022-09-06T09:10:02.790Z,4.83
2022-09-06T09:12:34.237Z,5.20
2022-09-06T09:15:09.037Z,5.23
2022-09-06T09:17:37.450Z,5.43
2022-09-06T09:20:08.382Z,5.03
2022-09-06T09:22:36.275Z,5.17
2022-09-06T09:25:07.162Z,5.00
2022-09-06T09:27:35.054Z,5.90
2022-09-06T09:32:54.004Z,5.97
2022-09-06T09:35:32.109Z,4.87
2022-09-06T09:38:12.541Z,4.90
2022-09-06T09:41:05.261Z,5.40
2022-09-06T09:43:38.927Z,5.13
2022-09-06T09:46:15.475Z,5.07
2022-09-06T09:49:02.005Z,4.80
2022-09-06T09:51:32.230Z,5.20
2022-09-06T09:54:11.705Z,5.33
2022-09-06T09:56:41.401Z,5.53
2022-09-06T09:59:26.137Z,6.90
2022-09-06T10:02:01.505Z,5.23
2022-09-06T10:04:45.768Z,4.80
2022-09-06T10:07:18.406Z,6.20
2022-09-06T10:10:05.335Z,5.83
2022-09-06T10:12:35.028Z,6.10
2022-09-06T10:15:07.109Z,6.47
2022-09-06T10:17:53.546Z,5.00
2022-09-06T10:20:44.621Z,5.20
2022-09-06T10:26:29.492Z,5.97
2022-09-06T10:29:09.995Z,5.63
2022-09-06T10:31:40.140Z,5.37
2022-09-06T10:34:35.631Z,6.40
2022-09-06T10:37:42.624Z,5.60
2022-09-06T10:40:12.932Z,5.27
2022-09-06T10:42:54.594Z,5.40
2022-09-06T10:45:33.039Z,5.57
2022-09-06T10:48:32.920Z,6.00
2022-09-06T10:51:58.296Z,4.67
2022-09-06T10:54:25.666Z,5.30
2022-09-06T10:56:54.105Z,5.70
2022-09-06T10:59:55.932Z,8.30
2022-09-06T11:06:09.479Z,5.63
2022-09-06T11:09:29.807Z,5.50
2022-09-06T11:12:19.975Z,5.30
2022-09-06T11:14:47.277Z,5.50
2022-09-06T11:18:02.749Z,4.90
2022-09-06T11:20:47.989Z,5.10
2022-09-06T11:24:02.135Z,5.37
2022-09-06T11:26:54.146Z,4.90
2022-09-06T11:29:27.465Z,5.13
2022-09-06T11:34:55.493Z,4.87
2022-09-06T11:37:33.390Z,4.63
2022-09-06T11:40:29.939Z,4.43
2022-09-06T11:42:59.419Z,3.83
2022-09-06T11:45:45.796Z,4.70
2022-09-06T11:48:33.995Z,4.20
2022-09-06T11:51:11.194Z,4.20
2022-09-06T11:53:50.821Z,3.30
2022-09-06T11:56:41.389Z,3.77
2022-09-06T11:59:18.906Z,3.73
2022-09-06T12:02:06.428Z,3.77
2022-09-06T12:05:01.753Z,3.20
2022-09-06T12:07:31.691Z,2.60
2022-09-06T12:10:03.511Z,3.00
2022-09-06T12:12:50.840Z,2.67
2022-09-06T12:15:46.145Z,2.47
2022-09-06T12:18:48.359Z,2.80
2022-09-06T12:21:46.267Z,2.50
2022-09-06T12:24:35.366Z,2.60
2022-09-06T12:27:17.813Z,3.13
2022-09-06T12:29:59.585Z,2.63
2022-09-06T12:32:36.618Z,3.30
2022-09-06T12:38:25.627Z,2.87
2022-09-06T12:40:58.420Z,2.00
2022-09-06T12:43:27.014Z,2.50
2022-09-06T12:45:54.204Z,2.50
2022-09-06T12:48:35.440Z,2.37
2022-09-06T12:51:06.241Z,2.63
2022-09-06T12:53:35.010Z,2.77
2022-09-06T12:56:12.520Z,3.37
2022-09-06T12:58:40.000Z,3.57
2022-09-06T13:01:22.785Z,3.00
2022-09-06T13:04:10.631Z,3.60
2022-09-06T13:06:45.829Z,3.60
2022-09-06T13:09:18.371Z,4.30
2022-09-06T13:11:51.056Z,4.33
2022-09-06T13:14:28.362Z,5.40
2022-09-06T13:16:57.321Z,5.10
2022-09-06T13:19:34.304Z,4.27
2022-09-06T13:22:05.546Z,4.80
2022-09-06T13:24:35.759Z,5.40
2022-09-06T13:27:31.500Z,4.10
2022-09-06T13:30:10.364Z,3.03
2022-09-06T13:32:46.963Z,3.00
2022-09-06T13:35:24.296Z,2.30
2022-09-06T13:37:51.580Z,2.23
2022-09-06T13:41:06.722Z,2.87
2022-09-06T13:43:32.692Z,2.80
2022-09-06T13:46:08.067Z,4.60
2022-09-06T13:48:36.041Z,7.10
2022-09-06T13:51:09.734Z,8.10
2022-09-06T13:53:37.106Z,8.63
2022-09-06T13:56:08.733Z,8.60
2022-09-06T13:58:37.018Z,9.50
2022-09-06T14:01:09.979Z,9.70
2022-09-06T14:03:40.955Z,12.20
2022-09-06T14:06:10.132Z,12.40
2022-09-06T14:09:03.427Z,14.47
2022-09-06T14:11:26.686Z,13.30
2022-09-06T14:13:53.907Z,13.23
2022-09-06T14:16:21.215Z,13.63
2022-09-06T14:18:48.526Z,12.87
2022-09-06T14:21:15.727Z,13.00
2022-09-06T14:23:42.924Z,12.27
2022-09-06T14:26:10.644Z,11.13
2022-09-06T14:28:40.867Z,11.50
2022-09-06T14:31:25.989Z,11.50
2022-09-06T14:33:57.321Z,11.43
2022-09-06T14:36:29.398Z,12.13
2022-09-06T14:38:58.873Z,9.43
2022-09-06T14:41:27.146Z,11.20
2022-09-06T14:43:57.240Z,9.10
2022-09-06T14:46:26.499Z,7.30
2022-09-06T14:49:03.108Z,6.67
2022-09-06T14:51:30.761Z,7.70
2022-09-06T14:54:05.856Z,8.10
2022-09-06T14:56:33.191Z,7.47
2022-09-06T14:59:00.865Z,7.63
2022-09-06T15:01:35.770Z,6.43
2022-09-06T15:04:08.046Z,6.70
2022-09-06T15:06:39.204Z,7.93
2022-09-06T15:09:07.858Z,8.30
2022-09-06T15:11:39.431Z,8.97
2022-09-06T15:14:13.567Z,8.40
2022-09-06T15:16:40.981Z,9.33
2022-09-06T15:19:08.938Z,8.47
2022-09-06T15:21:36.725Z,7.50
2022-09-06T15:24:11.022Z,6.53
2022-09-06T15:26:41.182Z,7.20
2022-09-06T15:29:10.290Z,6.13
2022-09-06T15:31:38.494Z,6.70
2022-09-06T15:34:07.490Z,7.10
2022-09-06T15:36:35.548Z,8.97
2022-09-06T15:39:05.899Z,9.27
2022-09-06T15:41:37.683Z,10.93
2022-09-06T15:44:14.389Z,10.30
2022-09-06T15:47:00.769Z,10.27
2022-09-06T15:49:31.923Z,10.13
2022-09-06T15:52:02.636Z,9.90
2022-09-06T15:54:49.240Z,10.97
2022-09-06T15:57:17.763Z,12.20
2022-09-06T15:59:45.504Z,11.17
2022-09-06T16:02:13.647Z,10.83
2022-09-06T16:04:41.178Z,11.00
2022-09-06T16:07:09.782Z,12.63
2022-09-06T16:09:37.002Z,13.13
2022-09-06T16:12:04.972Z,12.40
2022-09-06T16:14:32.376Z,14.37
2022-09-06T16:16:59.803Z,12.67
2022-09-06T16:19:27.338Z,13.10
2022-09-06T16:21:54.614Z,13.53
2022-09-06T16:24:23.018Z,14.80
2022-09-06T16:26:50.849Z,13.60
2022-09-06T16:29:19.224Z,14.10
2022-09-06T16:31:47.401Z,14.77
2022-09-06T16:34:15.107Z,15.80
2022-09-06T16:36:42.661Z,16.17
2022-09-06T16:39:10.973Z,15.23
2022-09-06T16:41:46.195Z,15.77
2022-09-06T16:44:17.383Z,19.07
2022-09-06T16:46:50.158Z,16.17
2022-09-06T16:49:19.380Z,16.10
2022-09-06T16:51:48.451Z,14.43
2022-09-06T16:54:16.731Z,16.87
2022-09-06T16:56:44.548Z,15.63
2022-09-06T16:59:13.077Z,15.80
2022-09-06T17:01:41.959Z,17.90
2022-09-06T17:04:09.965Z,17.80
2022-09-06T17:06:44.673Z,16.53
2022-09-06T17:09:15.978Z,16.13
2022-09-06T17:11:43.334Z,17.10
2022-09-06T17:14:10.637Z,15.17
2022-09-06T17:16:56.715Z,16.90
2022-09-06T17:19:24.212Z,21.00
2022-09-06T17:21:51.708Z,19.00
2022-09-06T17:24:19.043Z,18.97
2022-09-06T17:26:46.383Z,19.77
2022-09-06T17:29:13.588Z,21.00
2022-09-06T17:31:40.766Z,20.87
2022-09-06T17:34:08.116Z,17.30
2022-09-06T17:36:36.483Z,18.57
2022-09-06T17:39:11.026Z,19.90
2022-09-06T17:41:43.192Z,21.27
2022-09-06T17:44:13.209Z,20.13
2022-09-06T17:46:52.252Z,23.20
2022-09-06T17:49:25.842Z,20.60
2022-09-06T17:51:53.360Z,23.73
2022-09-06T17:54:20.571Z,23.93
2022-09-06T17:56:47.829Z,23.37
2022-09-06T17:59:15.691Z,22.13
2022-09-06T18:01:46.062Z,25.67
2022-09-06T18:04:18.181Z,26.30
2022-09-06T18:06:46.852Z,25.80
2022-09-06T18:09:17.573Z,26.50
2022-09-06T18:11:48.531Z,25.57
2022-09-06T18:14:20.957Z,41.33
2022-09-06T18:16:51.573Z,43.23
2022-09-06T18:19:19.012Z,32.70
2022-09-06T18:21:47.380Z,30.00
2022-09-06T18:24:14.908Z,28.57
2022-09-06T18:26:43.275Z,30.20
2022-09-06T18:29:13.138Z,31.93
2022-09-06T18:31:41.390Z,32.13
2022-09-06T18:34:09.355Z,34.00
2022-09-06T18:36:38.468Z,33.43
2022-09-06T18:39:06.464Z,34.13
2022-09-06T18:41:53.411Z,33.83
2022-09-06T18:44:21.626Z,34.20
2022-09-06T18:46:49.072Z,34.83
2022-09-06T18:49:17.449Z,36.00
2022-09-06T18:51:45.608Z,34.50
2022-09-06T18:54:13.699Z,38.57
2022-09-06T18:56:42.021Z,37.23
2022-09-06T18:59:10.873Z,37.80
2022-09-06T19:01:39.011Z,38.00
2022-09-06T19:04:07.299Z,38.47
2022-09-06T19:06:37.750Z,38.43
2022-09-06T19:09:10.907Z,37.03
2022-09-06T19:11:38.240Z,38.50
2022-09-06T19:14:05.829Z,37.27
2022-09-06T19:16:33.754Z,40.90
2022-09-06T19:19:07.355Z,45.87
2022-09-06T19:21:40.788Z,45.30
2022-09-06T19:24:10.929Z,46.20
2022-09-06T19:26:41.806Z,46.20
2022-09-06T19:29:14.845Z,44.10
2022-09-06T19:31:42.935Z,41.87
2022-09-06T19:34:12.261Z,39.60
2022-09-06T19:36:39.597Z,37.23
2022-09-06T19:39:10.075Z,39.50
2022-09-06T19:41:40.011Z,36.17
2022-09-06T19:44:09.028Z,35.60
2022-09-06T19:46:37.635Z,38.40
2022-09-06T19:49:08.258Z,38.80
2022-09-06T19:51:37.203Z,38.57
2022-09-06T19:54:05.507Z,39.63
2022-09-06T19:56:36.401Z,38.00
2022-09-06T19:59:07.390Z,39.00
2022-09-06T20:01:37.751Z,38.27
2022-09-06T20:04:10.929Z,41.03
2022-09-06T20:06:39.212Z,41.23
2022-09-06T20:09:09.128Z,40.37
2022-09-06T20:11:40.166Z,44.80
2022-09-06T20:14:08.753Z,42.80
2022-09-06T20:16:41.217Z,41.40
2022-09-06T20:19:10.531Z,38.47
2022-09-06T20:21:38.140Z,40.17
2022-09-06T20:24:05.548Z,43.10
2022-09-06T20:26:32.866Z,39.30
2022-09-06T20:29:02.757Z,40.90
2022-09-06T20:31:31.502Z,42.20
2022-09-06T20:34:00.750Z,41.77
2022-09-06T20:36:28.511Z,40.67
2022-09-06T20:38:55.986Z,39.90
2022-09-06T20:41:27.458Z,42.97
2022-09-06T20:43:57.531Z,42.47
2022-09-06T20:46:28.529Z,40.40
2022-09-06T20:48:59.759Z,40.43
2022-09-06T20:51:26.981Z,44.10
2022-09-06T20:53:59.281Z,40.57
2022-09-06T20:56:36.904Z,43.57
2022-09-06T20:59:08.814Z,45.03
2022-09-06T21:01:42.976Z,45.47
2022-09-06T21:04:11.864Z,45.43
2022-09-06T21:06:40.421Z,46.00
2022-09-06T21:09:13.856Z,44.70
2022-09-06T21:11:41.946Z,43.70
2022-09-06T21:14:10.271Z,48.40
2022-09-06T21:16:39.019Z,43.97
2022-09-06T21:19:08.656Z,44.00
2022-09-06T21:21:36.168Z,45.87
2022-09-06T21:24:06.175Z,43.97
2022-09-06T21:26:33.980Z,47.40
2022-09-06T21:29:01.482Z,49.00
2022-09-06T21:31:34.776Z,47.67
2022-09-06T21:34:06.495Z,44.77
2022-09-06T21:36:37.743Z,47.83
2022-09-06T21:39:09.630Z,48.57
2022-09-06T21:41:42.324Z,45.07
2022-09-06T21:44:10.582Z,46.97
2022-09-06T21:46:39.535Z,45.07
2022-09-06T21:49:10.142Z,44.23
2022-09-06T21:51:38.046Z,50.00
2022-09-06T21:54:06.210Z,46.43
2022-09-06T21:56:35.948Z,46.37
2022-09-06T21:59:04.889Z,48.10
2022-09-06T22:01:35.150Z,51.63
2022-09-06T22:04:03.546Z,46.80
2022-09-06T22:06:32.798Z,50.73
2022-09-06T22:09:04.994Z,51.10
2022-09-06T22:11:34.821Z,52.83
2022-09-06T22:14:06.978Z,59.03
2022-09-06T22:16:37.197Z,62.30
2022-09-06T22:19:06.807Z,59.37
2022-09-06T22:21:34.326Z,61.73
2022-09-06T22:24:05.355Z,66.20
2022-09-06T22:26:35.132Z,63.57
2022-09-06T22:29:06.447Z,60.90
2022-09-06T22:31:35.262Z,57.17
2022-09-06T22:34:02.825Z,60.30
2022-09-06T22:36:29.966Z,55.10
2022-09-06T22:38:57.729Z,57.80
2022-09-06T22:41:30.926Z,56.00
2022-09-06T22:44:01.133Z,50.50
2022-09-06T22:46:29.273Z,50.00
2022-09-06T22:48:56.466Z,47.47
2022-09-06T22:51:23.632Z,49.17
2022-09-06T22:53:50.974Z,49.17
2022-09-06T22:56:18.208Z,44.53
2022-09-06T22:58:45.465Z,46.10
2022-09-06T23:01:16.686Z,44.50
2022-09-06T23:03:44.742Z,45.10
2022-09-06T23:06:12.107Z,44.53
2022-09-06T23:08:40.874Z,44.93
2022-09-06T23:11:14.890Z,41.97
2022-09-06T23:13:47.133Z,41.77
2022-09-06T23:16:18.544Z,40.10
2022-09-06T23:18:47.210Z,40.47
2022-09-06T23:21:21.002Z,40.90
2022-09-06T23:23:50.791Z,43.47
2022-09-06T23:26:28.664Z,39.70
2022-09-06T23:28:58.903Z,43.87
2022-09-06T23:31:32.514Z,41.00
2022-09-06T23:34:01.936Z,40.57
2022-09-06T23:36:29.730Z,41.20
2022-09-06T23:38:57.673Z,39.67
2022-09-06T23:41:25.146Z,41.87
2022-09-06T23:43:52.287Z,40.97
2022-09-06T23:46:19.768Z,47.90
2022-09-06T23:48:47.227Z,46.27
2022-09-06T23:51:14.714Z,46.60
2022-09-06T23:53:42.020Z,46.07
2022-09-06T23:56:10.109Z,45.00
2022-09-06T23:58:38.394Z,46.00
